Time;durP1;ratioP1;P1;durP2;ratioP2;P2;SDS_P1;SDS_P2;PMS_P1;PMS_P2;Temp;Humidity;BMP_temperature;BMP_pressure;BME280_temperature;BME280_humidity;BME280_pressure;Samples;Min_cycle;Max_cycle;Signal;HPM_P1;HPM_P2
2021/06/09 00:02:53;;;;;;;18.85;12.10;;;;;;;;;;6198138;23;20172;-91
2021/06/09 00:05:57;;;;;;;19.20;11.77;;;;;;;;;;6198335;23;20167;-89
2021/06/09 00:09:02;;;;;;;15.80;11.48;;;;;;;;;;6198243;23;20176;-90
2021/06/09 00:12:07;;;;;;;21.58;11.82;;;;;;;;;;6197696;23;20168;-92
2021/06/09 00:15:13;;;;;;;17.75;11.55;;;;;;;;;;6197556;23;20172;-90
2021/06/09 00:18:19;;;;;;;17.80;12.40;;;;;;;;;;6197733;23;20167;-91
2021/06/09 00:21:23;;;;;;;17.50;11.20;;;;;;;;;;6196708;23;20295;-91
2021/06/09 00:24:28;;;;;;;17.30;11.65;;;;;;;;;;6198710;23;20326;-91
2021/06/09 00:27:32;;;;;;;15.25;11.70;;;;;;;;;;6197699;23;20283;-90
2021/06/09 00:30:37;;;;;;;21.48;11.80;;;;;;;;;;6197588;23;20171;-91
2021/06/09 00:33:43;;;;;;;17.13;11.43;;;;;;;;;;6196690;23;20168;-90
2021/06/09 00:36:48;;;;;;;20.95;11.77;;;;;;;;;;6197054;23;20215;-90
2021/06/09 00:39:52;;;;;;;18.17;11.32;;;;;;;;;;6197783;23;20195;-90
2021/06/09 00:43:04;;;;;;;19.98;11.75;;;;;;;;;;6196798;23;20167;-90
2021/06/09 00:46:09;;;;;;;16.83;11.90;;;;;;;;;;6197735;23;20175;-91
2021/06/09 00:49:15;;;;;;;17.30;11.43;;;;;;;;;;6197536;23;20183;-91
2021/06/09 00:52:23;;;;;;;19.20;13.05;;;;;;;;;;6197801;23;20233;-93
2021/06/09 00:55:28;;;;;;;21.25;12.70;;;;;;;;;;6199521;23;20233;-92
2021/06/09 00:58:33;;;;;;;19.60;11.65;;;;;;;;;;6198590;23;20172;-90
2021/06/09 01:01:38;;;;;;;15.15;10.65;;;;;;;;;;6196802;23;20192;-90
2021/06/09 01:04:45;;;;;;;22.15;11.68;;;;;;;;;;6203991;23;20238;-91
2021/06/09 01:07:50;;;;;;;19.98;12.07;;;;;;;;;;6199669;23;20172;-91
2021/06/09 01:10:55;;;;;;;22.38;12.88;;;;;;;;;;6199674;23;20650;-90
2021/06/09 01:14:01;;;;;;;25.45;12.77;;;;;;;;;;6199184;23;20219;-90
2021/06/09 01:17:05;;;;;;;20.95;12.38;;;;;;;;;;6198939;23;20262;-89
2021/06/09 01:20:13;;;;;;;19.70;13.07;;;;;;;;;;6199400;23;20236;-90
2021/06/09 01:23:19;;;;;;;17.38;12.65;;;;;;;;;;6199576;23;20191;-92
2021/06/09 01:26:26;;;;;;;21.15;12.95;;;;;;;;;;6201173;23;20204;-91
2021/06/09 01:29:31;;;;;;;18.23;11.32;;;;;;;;;;6201390;23;20234;-91
2021/06/09 01:32:36;;;;;;;19.83;12.38;;;;;;;;;;6201494;23;20192;-90
2021/06/09 01:35:40;;;;;;;16.80;11.57;;;;;;;;;;6201578;23;20206;-91
2021/06/09 01:38:46;;;;;;;18.92;12.50;;;;;;;;;;6201122;23;20216;-90
2021/06/09 01:41:55;;;;;;;20.45;12.90;;;;;;;;;;6200856;23;20683;-91
2021/06/09 01:44:59;;;;;;;20.38;12.63;;;;;;;;;;6199747;23;20206;-91
2021/06/09 01:48:05;;;;;;;21.33;12.25;;;;;;;;;;6200596;23;20196;-91
2021/06/09 01:51:10;;;;;;;18.60;12.40;;;;;;;;;;6200057;23;20181;-90
2021/06/09 01:54:16;;;;;;;22.38;12.50;;;;;;;;;;6200924;23;20179;-91
2021/06/09 01:57:22;;;;;;;19.05;12.95;;;;;;;;;;6199485;23;20239;-90
2021/06/09 02:00:27;;;;;;;21.13;13.02;;;;;;;;;;6199335;23;20195;-91
2021/06/09 02:03:32;;;;;;;17.65;12.60;;;;;;;;;;6198757;23;20176;-90
2021/06/09 02:06:39;;;;;;;22.45;13.25;;;;;;;;;;6199887;23;20175;-91
2021/06/09 02:09:45;;;;;;;27.90;14.13;;;;;;;;;;6199862;23;20396;-89
2021/06/09 02:12:53;;;;;;;22.17;13.85;;;;;;;;;;6198804;23;20632;-90
2021/06/09 02:15:57;;;;;;;20.38;13.73;;;;;;;;;;6199262;23;20243;-91
2021/06/09 02:19:02;;;;;;;21.65;13.65;;;;;;;;;;6181646;23;20167;-90
2021/06/09 02:22:07;;;;;;;19.23;13.25;;;;;;;;;;6180421;23;20191;-91
2021/06/09 02:25:14;;;;;;;23.88;13.27;;;;;;;;;;6181078;23;20244;-92
2021/06/09 02:28:19;;;;;;;21.23;13.00;;;;;;;;;;6182485;23;20229;-90
2021/06/09 02:31:23;;;;;;;18.40;12.40;;;;;;;;;;6182512;23;20592;-90
2021/06/09 02:34:28;;;;;;;22.75;12.48;;;;;;;;;;6183291;23;20219;-91
2021/06/09 02:37:33;;;;;;;18.98;12.52;;;;;;;;;;6182217;23;20207;-90
2021/06/09 02:40:40;;;;;;;20.08;12.02;;;;;;;;;;6183019;23;20164;-90
2021/06/09 02:43:47;;;;;;;22.30;12.07;;;;;;;;;;6181679;23;20164;-91
2021/06/09 02:46:54;;;;;;;18.25;11.63;;;;;;;;;;6182658;23;20171;-92
2021/06/09 02:50:00;;;;;;;18.73;12.85;;;;;;;;;;6181339;23;20631;-91
2021/06/09 02:53:08;;;;;;;19.33;13.18;;;;;;;;;;6182381;23;20167;-90
2021/06/09 02:56:20;;;;;;;20.70;12.07;;;;;;;;;;6181690;23;20560;-89
2021/06/09 02:59:31;;;;;;;18.90;12.02;;;;;;;;;;6182231;23;20179;-90
2021/06/09 03:02:45;;;;;;;22.10;13.07;;;;;;;;;;6198580;23;20175;-91
2021/06/09 03:05:54;;;;;;;19.60;12.32;;;;;;;;;;6181435;23;20211;-89
2021/06/09 03:09:02;;;;;;;21.38;13.07;;;;;;;;;;6181313;23;20203;-89
2021/06/09 03:12:19;;;;;;;20.38;13.23;;;;;;;;;;6180547;23;20186;-89
2021/06/09 03:15:27;;;;;;;24.08;14.23;;;;;;;;;;6181088;23;20179;-90
2021/06/09 03:18:37;;;;;;;25.42;13.90;;;;;;;;;;6151654;23;20692;-90
2021/06/09 03:21:43;;;;;;;24.58;14.35;;;;;;;;;;6169466;23;20188;-90
2021/06/09 03:24:49;;;;;;;21.50;13.48;;;;;;;;;;6167112;23;20200;-91
2021/06/09 03:27:56;;;;;;;24.67;13.70;;;;;;;;;;6167997;23;20171;-90
2021/06/09 03:31:02;;;;;;;21.67;13.63;;;;;;;;;;6167761;23;20176;-90
2021/06/09 03:34:12;;;;;;;27.92;14.35;;;;;;;;;;6166613;23;20533;-89
2021/06/09 03:37:19;;;;;;;26.08;14.52;;;;;;;;;;6166660;23;20235;-91
2021/06/09 03:40:26;;;;;;;23.27;14.18;;;;;;;;;;6150075;23;20195;-91
2021/06/09 03:43:33;;;;;;;24.75;14.25;;;;;;;;;;6167591;23;20199;-90
2021/06/09 03:46:39;;;;;;;22.48;14.65;;;;;;;;;;6168178;23;20187;-90
2021/06/09 03:49:45;;;;;;;24.15;13.45;;;;;;;;;;6167864;23;20216;-90
2021/06/09 03:52:50;;;;;;;24.27;14.10;;;;;;;;;;6168815;23;20168;-89
2021/06/09 03:55:57;;;;;;;24.35;14.00;;;;;;;;;;6167529;23;20279;-91
2021/06/09 03:59:04;;;;;;;24.35;14.50;;;;;;;;;;6167356;23;20229;-92
2021/06/09 04:02:11;;;;;;;24.15;14.15;;;;;;;;;;6168584;23;20249;-91
2021/06/09 04:05:15;;;;;;;25.02;14.23;;;;;;;;;;6169296;23;20200;-89
2021/06/09 04:08:21;;;;;;;23.27;13.20;;;;;;;;;;6152717;23;20224;-91
2021/06/09 04:11:27;;;;;;;21.02;13.20;;;;;;;;;;6152853;23;20157;-91
2021/06/09 04:14:36;;;;;;;24.95;13.82;;;;;;;;;;6169861;23;20176;-89
2021/06/09 04:17:41;;;;;;;22.05;13.70;;;;;;;;;;6193317;23;20192;-90
2021/06/09 04:20:48;;;;;;;26.73;14.63;;;;;;;;;;6198654;23;20184;-91
2021/06/09 04:23:53;;;;;;;24.13;15.40;;;;;;;;;;6199579;23;20171;-91
2021/06/09 04:27:00;;;;;;;28.83;16.33;;;;;;;;;;6201426;23;20222;-90
2021/06/09 04:30:07;;;;;;;27.50;15.93;;;;;;;;;;6200694;23;20195;-90
2021/06/09 04:33:12;;;;;;;33.65;17.10;;;;;;;;;;6200769;23;20180;-89
2021/06/09 04:36:17;;;;;;;29.85;16.90;;;;;;;;;;6200316;23;20188;-90
2021/06/09 04:39:22;;;;;;;25.05;16.20;;;;;;;;;;6199814;23;20237;-90
2021/06/09 04:42:27;;;;;;;25.75;16.15;;;;;;;;;;6197310;23;20228;-90
2021/06/09 04:45:33;;;;;;;26.52;15.52;;;;;;;;;;6199320;23;20264;-91
2021/06/09 04:48:38;;;;;;;23.38;15.95;;;;;;;;;;6197798;23;20171;-90
2021/06/09 04:51:43;;;;;;;24.10;15.13;;;;;;;;;;6196943;23;20183;-90
2021/06/09 04:54:48;;;;;;;28.15;15.93;;;;;;;;;;6200283;23;20191;-91
2021/06/09 04:57:53;;;;;;;24.88;15.60;;;;;;;;;;6199396;23;20266;-90
2021/06/09 05:01:08;;;;;;;26.42;15.90;;;;;;;;;;6200165;23;20188;-89
2021/06/09 05:04:13;;;;;;;26.55;16.23;;;;;;;;;;6200400;23;20200;-90
2021/06/09 05:07:22;;;;;;;26.83;15.90;;;;;;;;;;6198668;23;20223;-91
2021/06/09 05:10:26;;;;;;;26.27;16.42;;;;;;;;;;6202047;23;20168;-90
2021/06/09 05:13:33;;;;;;;27.00;16.75;;;;;;;;;;6204846;23;20163;-90
2021/06/09 05:16:48;;;;;;;30.98;16.90;;;;;;;;;;6206235;23;20191;-89
2021/06/09 05:19:54;;;;;;;23.75;14.88;;;;;;;;;;6202787;23;20228;-91
2021/06/09 05:23:02;;;;;;;29.15;17.00;;;;;;;;;;6202315;23;20179;-90
2021/06/09 05:26:07;;;;;;;25.70;16.27;;;;;;;;;;6202572;23;20200;-89
2021/06/09 05:29:15;;;;;;;32.60;16.45;;;;;;;;;;6203576;23;20223;-90
2021/06/09 05:32:36;;;;;;;23.77;15.45;;;;;;;;;;6202012;23;20164;-91
2021/06/09 05:35:43;;;;;;;21.42;14.43;;;;;;;;;;6203819;23;20238;-89
2021/06/09 05:38:48;;;;;;;22.30;14.00;;;;;;;;;;6202695;23;20183;-89
2021/06/09 05:41:53;;;;;;;24.35;14.52;;;;;;;;;;6207537;23;20171;-89
2021/06/09 05:44:58;;;;;;;23.35;14.90;;;;;;;;;;6199615;23;20379;-89
2021/06/09 05:48:04;;;;;;;25.58;16.00;;;;;;;;;;6201667;23;20163;-90
2021/06/09 05:51:12;;;;;;;27.48;15.98;;;;;;;;;;6200357;23;20180;-90
2021/06/09 05:54:19;;;;;;;27.52;15.73;;;;;;;;;;6199179;23;20176;-90
2021/06/09 05:57:24;;;;;;;23.48;14.05;;;;;;;;;;6198664;23;20287;-89
2021/06/09 06:03:57;;;;;;;22.27;13.88;;;;;;;;;;6209650;23;20164;-90
2021/06/09 06:07:37;;;;;;;22.90;12.90;;;;;;;;;;6209592;23;20164;-90
2021/06/09 06:10:41;;;;;;;20.80;13.48;;;;;;;;;;6202738;23;20164;-91
2021/06/09 06:13:47;;;;;;;23.73;14.32;;;;;;;;;;6202274;23;20172;-89
2021/06/09 06:16:52;;;;;;;21.40;13.35;;;;;;;;;;6200819;23;20195;-89
2021/06/09 06:19:57;;;;;;;22.02;13.70;;;;;;;;;;6202372;23;20187;-90
2021/06/09 06:23:16;;;;;;;20.70;13.10;;;;;;;;;;6198394;23;20164;-90
2021/06/09 06:26:24;;;;;;;21.33;12.90;;;;;;;;;;6199970;23;20263;-90
2021/06/09 06:29:29;;;;;;;20.27;12.30;;;;;;;;;;6200702;23;20220;-91
2021/06/09 06:32:34;;;;;;;18.65;13.02;;;;;;;;;;6201180;23;20176;-91
2021/06/09 06:35:39;;;;;;;22.05;12.95;;;;;;;;;;6199686;23;20164;-89
2021/06/09 06:38:45;;;;;;;19.92;12.98;;;;;;;;;;6200130;23;20171;-91
2021/06/09 06:41:52;;;;;;;20.08;12.85;;;;;;;;;;6200786;23;20167;-89
2021/06/09 06:44:57;;;;;;;18.13;12.20;;;;;;;;;;6197764;23;20179;-89
2021/06/09 06:48:06;;;;;;;19.50;13.00;;;;;;;;;;6197662;23;20173;-90
2021/06/09 06:51:11;;;;;;;19.73;12.45;;;;;;;;;;6199650;23;20176;-90
2021/06/09 06:54:16;;;;;;;18.63;11.57;;;;;;;;;;6198635;23;20175;-90
2021/06/09 06:57:25;;;;;;;19.52;11.82;;;;;;;;;;6197743;23;20789;-91
2021/06/09 07:00:30;;;;;;;16.00;12.18;;;;;;;;;;6198331;23;20168;-92
2021/06/09 07:03:37;;;;;;;16.63;11.88;;;;;;;;;;6199347;23;20179;-92
2021/06/09 07:06:43;;;;;;;20.73;11.77;;;;;;;;;;6199167;23;20208;-91
2021/06/09 07:09:47;;;;;;;18.17;12.95;;;;;;;;;;6199876;23;20176;-90
2021/06/09 07:12:56;;;;;;;20.38;12.57;;;;;;;;;;6200909;23;20678;-90
2021/06/09 07:16:02;;;;;;;21.90;12.32;;;;;;;;;;6186387;23;20191;-90
2021/06/09 07:19:08;;;;;;;15.48;11.05;;;;;;;;;;6182463;23;20168;-88
2021/06/09 07:22:15;;;;;;;18.15;11.35;;;;;;;;;;6200625;23;20167;-91
2021/06/09 07:25:20;;;;;;;20.27;11.18;;;;;;;;;;6180647;23;20243;-90
2021/06/09 07:28:27;;;;;;;19.90;10.80;;;;;;;;;;6178276;23;20191;-90
2021/06/09 07:31:33;;;;;;;15.55;10.82;;;;;;;;;;6200182;23;20174;-90
2021/06/09 07:34:37;;;;;;;14.55;10.85;;;;;;;;;;6184801;23;20180;-90
2021/06/09 07:37:44;;;;;;;15.90;10.40;;;;;;;;;;6183728;23;20176;-89
2021/06/09 07:40:53;;;;;;;12.43;9.63;;;;;;;;;;6185570;23;20171;-91
2021/06/09 07:44:02;;;;;;;15.13;9.85;;;;;;;;;;6203397;23;20199;-89
2021/06/09 07:47:07;;;;;;;16.77;9.82;;;;;;;;;;6202789;23;20191;-90
2021/06/09 07:50:15;;;;;;;13.38;8.88;;;;;;;;;;6203776;23;20163;-91
2021/06/09 07:53:21;;;;;;;14.60;9.07;;;;;;;;;;6202837;23;20171;-91
2021/06/09 07:56:31;;;;;;;11.70;8.23;;;;;;;;;;6202428;23;20172;-90
2021/06/09 07:59:39;;;;;;;11.88;8.02;;;;;;;;;;6202564;23;20195;-93
2021/06/09 08:02:45;;;;;;;16.95;8.52;;;;;;;;;;6201932;23;20186;-91
2021/06/09 08:36:31;;;;;;;10.25;5.90;;;;;;;;;;6159787;23;20206;-91
2021/06/09 08:39:36;;;;;;;8.25;5.50;;;;;;;;;;6202015;23;20167;-91
2021/06/09 08:42:42;;;;;;;9.57;5.82;;;;;;;;;;6182222;23;20241;-90
2021/06/09 08:45:48;;;;;;;9.88;6.20;;;;;;;;;;6201315;23;20182;-91
2021/06/09 08:48:55;;;;;;;10.15;6.97;;;;;;;;;;6198947;23;20170;-91
2021/06/09 08:52:06;;;;;;;11.05;7.00;;;;;;;;;;6199992;23;20186;-91
2021/06/09 08:55:10;;;;;;;8.05;6.40;;;;;;;;;;6199624;23;20167;-92
2021/06/09 08:58:16;;;;;;;7.20;6.13;;;;;;;;;;6203068;23;20172;-91
2021/06/09 09:01:21;;;;;;;15.10;7.93;;;;;;;;;;6203036;23;20174;-91
2021/06/09 09:04:27;;;;;;;18.60;7.43;;;;;;;;;;6202121;23;20183;-92
2021/06/09 09:07:41;;;;;;;7.25;6.10;;;;;;;;;;6184724;23;20191;-93
2021/06/09 09:10:45;;;;;;;13.32;7.05;;;;;;;;;;6199507;23;20251;-89
2021/06/09 09:13:51;;;;;;;10.68;6.35;;;;;;;;;;6198658;23;20255;-93
2021/06/09 09:17:02;;;;;;;12.65;6.63;;;;;;;;;;6197240;23;20207;-91
2021/06/09 09:20:09;;;;;;;14.88;6.35;;;;;;;;;;6197769;23;20252;-90
2021/06/09 09:23:24;;;;;;;8.20;6.85;;;;;;;;;;6196654;23;20240;-90
2021/06/09 09:26:33;;;;;;;9.27;7.88;;;;;;;;;;6181826;23;20246;-90
2021/06/09 09:29:38;;;;;;;12.35;7.90;;;;;;;;;;6196705;23;20171;-91
2021/06/09 09:33:01;;;;;;;11.15;8.45;;;;;;;;;;6180940;23;20168;-92
2021/06/09 09:36:20;;;;;;;11.32;7.97;;;;;;;;;;6199062;23;20195;-92
2021/06/09 09:39:25;;;;;;;9.82;7.90;;;;;;;;;;6199910;23;20175;-91
2021/06/09 09:42:33;;;;;;;9.70;7.15;;;;;;;;;;6196957;23;20163;-91
2021/06/09 09:45:38;;;;;;;18.45;7.82;;;;;;;;;;6196314;23;20191;-91
2021/06/09 09:48:58;;;;;;;11.40;7.78;;;;;;;;;;6181413;23;20175;-91
2021/06/09 09:52:04;;;;;;;12.93;7.28;;;;;;;;;;6198276;23;20248;-92
2021/06/09 09:55:11;;;;;;;10.75;7.68;;;;;;;;;;6180992;23;20171;-91
2021/06/09 09:58:15;;;;;;;10.50;7.65;;;;;;;;;;6197745;23;20301;-91
2021/06/09 10:01:21;;;;;;;12.10;8.07;;;;;;;;;;6199441;23;20162;-89
2021/06/09 10:04:28;;;;;;;14.88;8.30;;;;;;;;;;6199455;23;20170;-91
2021/06/09 10:07:33;;;;;;;9.93;7.80;;;;;;;;;;6198955;23;20195;-91
2021/06/09 10:10:39;;;;;;;14.15;7.88;;;;;;;;;;6197825;23;20171;-94
2021/06/09 10:14:24;;;;;;;14.57;8.15;;;;;;;;;;6203679;23;20191;-91
2021/06/09 10:17:29;;;;;;;10.65;8.50;;;;;;;;;;6182306;23;20155;-91
2021/06/09 10:20:36;;;;;;;9.70;7.78;;;;;;;;;;6200714;23;20200;-91
2021/06/09 10:23:41;;;;;;;10.40;7.05;;;;;;;;;;6200055;23;20255;-93
2021/06/09 10:26:53;;;;;;;8.43;6.70;;;;;;;;;;6182238;23;20557;-91
2021/06/09 10:29:58;;;;;;;9.75;6.38;;;;;;;;;;6198802;23;20178;-91
2021/06/09 10:33:03;;;;;;;10.05;6.75;;;;;;;;;;6199131;23;20190;-91
2021/06/09 10:36:08;;;;;;;9.00;6.03;;;;;;;;;;6198319;23;20191;-92
2021/06/09 10:39:13;;;;;;;9.65;6.32;;;;;;;;;;6198148;23;20192;-91
2021/06/09 10:42:20;;;;;;;10.90;6.20;;;;;;;;;;6198246;23;20166;-93
2021/06/09 10:45:25;;;;;;;8.55;5.43;;;;;;;;;;6200021;23;20190;-93
2021/06/09 10:48:30;;;;;;;8.43;5.80;;;;;;;;;;6199009;23;20186;-92
2021/06/09 10:51:40;;;;;;;9.27;5.88;;;;;;;;;;6199547;23;20212;-89
2021/06/09 10:54:46;;;;;;;9.30;5.68;;;;;;;;;;6198910;23;20191;-92
2021/06/09 10:58:00;;;;;;;8.45;4.88;;;;;;;;;;6197643;23;20606;-92
2021/06/09 11:01:07;;;;;;;4.50;4.00;;;;;;;;;;6199303;23;20204;-93
2021/06/09 11:04:12;;;;;;;5.38;4.50;;;;;;;;;;6200729;23;20174;-92
2021/06/09 11:07:29;;;;;;;4.93;3.90;;;;;;;;;;6180837;23;20163;-93
2021/06/09 11:10:41;;;;;;;7.25;4.22;;;;;;;;;;6198876;23;20198;-91
2021/06/09 11:13:48;;;;;;;46.70;5.38;;;;;;;;;;6196132;23;20219;-90
2021/06/09 11:16:53;;;;;;;8.82;3.63;;;;;;;;;;6199463;23;20187;-88
2021/06/09 11:20:10;;;;;;;7.00;4.20;;;;;;;;;;6198232;23;20175;-91
2021/06/09 11:23:26;;;;;;;12.05;3.90;;;;;;;;;;6198590;23;20171;-90
2021/06/09 11:26:32;;;;;;;6.60;4.45;;;;;;;;;;6184107;23;20191;-89
2021/06/09 11:29:37;;;;;;;6.85;4.90;;;;;;;;;;6200170;23;20171;-91
2021/06/09 11:32:43;;;;;;;26.20;6.40;;;;;;;;;;6199899;23;20168;-90
2021/06/09 11:35:49;;;;;;;20.00;6.90;;;;;;;;;;6183493;23;20215;-87
2021/06/09 11:38:54;;;;;;;12.63;5.80;;;;;;;;;;6187963;23;20186;-89
2021/06/09 11:42:09;;;;;;;23.73;7.50;;;;;;;;;;6200422;23;20545;-91
2021/06/09 11:45:37;;;;;;;16.00;8.65;;;;;;;;;;6183062;23;20188;-88
2021/06/09 11:48:53;;;;;;;22.13;10.20;;;;;;;;;;6198937;23;20176;-91
2021/06/09 11:52:01;;;;;;;19.85;8.45;;;;;;;;;;6180002;23;20276;-90
2021/06/09 11:55:11;;;;;;;21.73;9.20;;;;;;;;;;6200674;23;20167;-89
2021/06/09 11:58:16;;;;;;;22.55;9.35;;;;;;;;;;6196911;23;20191;-90
2021/06/09 12:01:21;;;;;;;19.63;8.60;;;;;;;;;;6195593;23;20667;-91
2021/06/09 12:04:29;;;;;;;17.60;8.52;;;;;;;;;;6196608;23;20175;-91
2021/06/09 12:07:34;;;;;;;17.98;9.10;;;;;;;;;;6194232;23;20168;-91
2021/06/09 12:10:39;;;;;;;18.42;8.95;;;;;;;;;;6197055;23;20192;-91
2021/06/09 12:13:44;;;;;;;15.43;8.70;;;;;;;;;;6178915;23;20163;-89
2021/06/09 12:16:50;;;;;;;20.88;9.32;;;;;;;;;;6181299;23;20172;-91
2021/06/09 12:20:01;;;;;;;16.25;8.43;;;;;;;;;;6198063;23;20168;-90
2021/06/09 12:23:09;;;;;;;15.95;7.80;;;;;;;;;;6197299;23;20179;-91
2021/06/09 12:26:13;;;;;;;13.98;7.55;;;;;;;;;;6197928;23;20580;-91
2021/06/09 12:29:24;;;;;;;17.30;7.60;;;;;;;;;;6201652;23;20167;-90
2021/06/09 12:32:32;;;;;;;16.60;7.68;;;;;;;;;;6206749;23;20188;-89
2021/06/09 12:39:03;;;;;;;14.27;6.85;;;;;;;;;;6181057;23;20638;-90
2021/06/09 12:42:12;;;;;;;10.52;6.03;;;;;;;;;;6196476;23;20187;-92
2021/06/09 12:45:18;;;;;;;14.15;8.20;;;;;;;;;;6197423;23;20242;-89
2021/06/09 12:48:23;;;;;;;13.35;7.22;;;;;;;;;;6199670;23;20172;-90
2021/06/09 12:51:29;;;;;;;15.70;6.82;;;;;;;;;;6196494;23;20192;-90
2021/06/09 12:54:33;;;;;;;12.13;6.60;;;;;;;;;;6198507;23;20176;-91
2021/06/09 12:57:38;;;;;;;10.02;5.40;;;;;;;;;;6180140;23;20587;-91
2021/06/09 13:00:44;;;;;;;6.90;4.88;;;;;;;;;;6180075;23;20163;-90
2021/06/09 13:03:51;;;;;;;7.15;5.20;;;;;;;;;;6183191;23;20237;-90
2021/06/09 13:06:57;;;;;;;6.88;4.93;;;;;;;;;;6199189;23;20215;-90
2021/06/09 13:10:02;;;;;;;6.78;4.13;;;;;;;;;;6198117;23;20162;-90
2021/06/09 13:13:07;;;;;;;4.90;3.47;;;;;;;;;;6199694;23;20200;-90
2021/06/09 13:16:14;;;;;;;6.80;3.72;;;;;;;;;;6197877;23;20167;-90
2021/06/09 13:19:19;;;;;;;13.88;6.78;;;;;;;;;;6198183;23;20211;-90
2021/06/09 13:22:31;;;;;;;8.15;4.45;;;;;;;;;;6199956;23;20199;-91
2021/06/09 13:25:36;;;;;;;5.30;3.40;;;;;;;;;;6204482;23;20191;-89
2021/06/09 13:28:41;;;;;;;6.72;3.50;;;;;;;;;;6200888;23;20615;-89
2021/06/09 13:31:47;;;;;;;4.88;3.50;;;;;;;;;;6184068;23;20176;-90
2021/06/09 13:34:59;;;;;;;5.22;3.50;;;;;;;;;;6205440;23;20179;-88
2021/06/09 13:38:12;;;;;;;8.52;4.13;;;;;;;;;;6187616;23;20235;-89
2021/06/09 13:41:17;;;;;;;5.78;3.75;;;;;;;;;;6186145;23;20176;-92
2021/06/09 13:44:22;;;;;;;4.28;3.25;;;;;;;;;;6201047;23;20199;-89
2021/06/09 13:47:31;;;;;;;7.68;3.58;;;;;;;;;;6182513;23;20192;-92
2021/06/09 13:50:36;;;;;;;7.13;4.03;;;;;;;;;;6181283;23;20224;-92
2021/06/09 13:53:52;;;;;;;4.05;3.10;;;;;;;;;;6181454;23;20160;-90
2021/06/09 13:56:57;;;;;;;6.82;3.70;;;;;;;;;;6183973;23;20199;-92
2021/06/09 14:00:03;;;;;;;5.72;3.40;;;;;;;;;;6180289;23;20248;-90
2021/06/09 14:03:19;;;;;;;5.68;3.67;;;;;;;;;;6197906;23;20180;-88
2021/06/09 14:06:23;;;;;;;7.00;4.10;;;;;;;;;;6182804;23;20254;-89
2021/06/09 14:09:29;;;;;;;6.60;3.70;;;;;;;;;;6182712;23;20172;-89
2021/06/09 14:12:38;;;;;;;6.57;4.10;;;;;;;;;;6184777;23;20172;-91
2021/06/09 14:15:48;;;;;;;8.90;4.28;;;;;;;;;;6182730;23;20164;-91
2021/06/09 14:18:52;;;;;;;5.90;4.47;;;;;;;;;;6199921;23;20176;-90
2021/06/09 14:21:57;;;;;;;7.07;4.25;;;;;;;;;;6182261;23;20207;-89
2021/06/09 14:25:13;;;;;;;7.53;4.50;;;;;;;;;;6200650;22;20164;-90
2021/06/09 14:28:19;;;;;;;5.75;4.10;;;;;;;;;;6201317;23;20168;-91
2021/06/09 14:31:26;;;;;;;7.80;4.65;;;;;;;;;;6184262;23;20229;-89
2021/06/09 14:34:38;;;;;;;7.72;4.90;;;;;;;;;;6182264;23;20163;-89
2021/06/09 14:37:43;;;;;;;8.55;5.15;;;;;;;;;;6200485;23;20179;-91
2021/06/09 14:40:50;;;;;;;8.25;4.80;;;;;;;;;;6200717;23;20229;-89
2021/06/09 14:43:59;;;;;;;7.72;5.18;;;;;;;;;;6200919;23;20163;-90
2021/06/09 14:47:10;;;;;;;9.88;4.70;;;;;;;;;;6199818;23;20196;-90
2021/06/09 14:50:15;;;;;;;6.30;4.60;;;;;;;;;;6219034;22;20176;-91
2021/06/09 14:53:20;;;;;;;10.25;5.18;;;;;;;;;;6220143;23;20176;-89
2021/06/09 14:56:26;;;;;;;10.63;5.10;;;;;;;;;;6198665;23;20234;-90
2021/06/09 14:59:31;;;;;;;7.00;4.75;;;;;;;;;;6198827;23;20221;-91
2021/06/09 15:02:37;;;;;;;6.35;4.72;;;;;;;;;;6216509;22;20258;-91
2021/06/09 15:05:41;;;;;;;8.30;4.30;;;;;;;;;;6198974;23;20195;-89
2021/06/09 15:08:46;;;;;;;6.28;3.95;;;;;;;;;;6200692;23;20191;-90
2021/06/09 15:11:53;;;;;;;6.50;3.97;;;;;;;;;;6201646;23;20227;-90
2021/06/09 15:14:57;;;;;;;9.73;3.95;;;;;;;;;;6202072;23;20179;-89
2021/06/09 15:18:04;;;;;;;7.50;3.25;;;;;;;;;;6198616;23;20198;-90
2021/06/09 15:21:08;;;;;;;5.55;3.63;;;;;;;;;;6200212;23;20438;-90
2021/06/09 15:24:13;;;;;;;6.45;3.78;;;;;;;;;;6198391;23;20199;-90
2021/06/09 15:27:19;;;;;;;5.38;3.28;;;;;;;;;;6199402;23;20322;-91
2021/06/09 15:30:24;;;;;;;6.05;3.92;;;;;;;;;;6199010;23;20187;-89
2021/06/09 15:33:28;;;;;;;6.28;3.40;;;;;;;;;;6200493;23;20187;-88
2021/06/09 15:36:36;;;;;;;6.75;3.85;;;;;;;;;;6200133;23;20199;-89
2021/06/09 15:39:43;;;;;;;8.30;4.50;;;;;;;;;;6199694;23;20171;-88
2021/06/09 15:42:49;;;;;;;5.82;4.10;;;;;;;;;;6202788;23;20156;-88
2021/06/09 15:45:54;;;;;;;5.97;4.07;;;;;;;;;;6198008;23;20523;-89
2021/06/09 15:48:59;;;;;;;10.10;3.92;;;;;;;;;;6197450;23;20241;-90
2021/06/09 15:52:04;;;;;;;6.55;4.30;;;;;;;;;;6197673;23;20168;-91
2021/06/09 15:55:10;;;;;;;7.60;4.78;;;;;;;;;;6216336;23;20205;-91
2021/06/09 15:58:17;;;;;;;8.77;4.95;;;;;;;;;;6217998;23;20176;-91
2021/06/09 16:01:22;;;;;;;7.43;4.28;;;;;;;;;;6201583;23;20192;-93
2021/06/09 16:04:30;;;;;;;9.38;4.40;;;;;;;;;;6200795;23;20171;-91
2021/06/09 16:07:35;;;;;;;8.52;4.03;;;;;;;;;;6220061;23;20164;-91
2021/06/09 16:10:43;;;;;;;8.00;4.25;;;;;;;;;;6202112;23;20171;-90
2021/06/09 16:13:52;;;;;;;6.57;4.15;;;;;;;;;;6200932;23;20168;-92
2021/06/09 16:16:59;;;;;;;6.78;4.30;;;;;;;;;;6202013;23;20196;-94
2021/06/09 16:20:05;;;;;;;7.90;4.35;;;;;;;;;;6201375;23;20172;-94
2021/06/09 16:23:10;;;;;;;6.55;4.22;;;;;;;;;;6199813;23;20173;-92
2021/06/09 16:26:15;;;;;;;5.95;4.40;;;;;;;;;;6197802;23;20184;-92
2021/06/09 16:29:22;;;;;;;7.70;6.00;;;;;;;;;;6202741;23;20207;-91
2021/06/09 16:32:26;;;;;;;9.23;5.30;;;;;;;;;;6199552;23;20172;-91
2021/06/09 16:35:32;;;;;;;7.20;5.05;;;;;;;;;;6199068;23;20224;-91
2021/06/09 16:38:37;;;;;;;6.82;4.25;;;;;;;;;;6200397;23;20235;-91
2021/06/09 16:41:43;;;;;;;8.63;4.20;;;;;;;;;;6183155;23;20188;-92
2021/06/09 16:44:55;;;;;;;9.15;4.28;;;;;;;;;;6200066;23;20171;-91
2021/06/09 16:48:00;;;;;;;8.07;4.25;;;;;;;;;;6188796;23;20183;-90
2021/06/09 16:51:05;;;;;;;7.38;4.60;;;;;;;;;;6186553;23;20223;-91
2021/06/09 16:54:16;;;;;;;8.23;4.35;;;;;;;;;;6200386;23;20188;-90
2021/06/09 17:01:00;;;;;;;6.40;4.10;;;;;;;;;;6096454;23;20169;-92
2021/06/09 17:04:06;;;;;;;10.38;4.60;;;;;;;;;;6096545;23;20174;-89
2021/06/09 17:07:11;;;;;;;6.45;4.22;;;;;;;;;;6184169;23;20224;-89
2021/06/09 17:10:17;;;;;;;9.32;4.50;;;;;;;;;;6185015;23;20179;-91
2021/06/09 17:13:23;;;;;;;9.48;4.60;;;;;;;;;;6201242;23;20155;-91
2021/06/09 17:16:29;;;;;;;6.20;4.20;;;;;;;;;;6201056;23;20203;-91
2021/06/09 17:19:35;;;;;;;9.73;4.43;;;;;;;;;;6183877;23;20172;-90
2021/06/09 17:22:40;;;;;;;8.25;4.38;;;;;;;;;;6183154;23;20176;-91
2021/06/09 17:25:45;;;;;;;9.15;4.10;;;;;;;;;;6201646;23;20211;-90
2021/06/09 17:28:50;;;;;;;8.57;3.65;;;;;;;;;;6201824;23;20167;-89
2021/06/09 17:31:56;;;;;;;7.55;4.03;;;;;;;;;;6204376;23;20181;-91
2021/06/09 17:35:01;;;;;;;8.57;4.30;;;;;;;;;;6199343;23;20168;-92
2021/06/09 17:38:06;;;;;;;13.85;5.78;;;;;;;;;;6204177;23;20156;-90
2021/06/09 17:41:10;;;;;;;12.25;4.50;;;;;;;;;;6202571;22;20175;-90
2021/06/09 17:44:15;;;;;;;7.95;4.70;;;;;;;;;;6183634;23;20172;-90
2021/06/09 17:47:24;;;;;;;11.40;4.80;;;;;;;;;;6201738;22;20191;-89
2021/06/09 17:50:29;;;;;;;8.55;4.15;;;;;;;;;;6200208;23;20223;-91
2021/06/09 17:53:34;;;;;;;7.55;4.43;;;;;;;;;;6181396;23;20179;-91
2021/06/09 17:56:41;;;;;;;6.88;4.28;;;;;;;;;;6183733;23;20245;-90
2021/06/09 17:59:45;;;;;;;6.28;4.20;;;;;;;;;;6181743;23;20216;-87
2021/06/09 18:03:06;;;;;;;8.30;4.20;;;;;;;;;;6182440;23;20171;-90
2021/06/09 18:06:11;;;;;;;10.48;4.57;;;;;;;;;;6198663;22;20199;-89
2021/06/09 18:09:15;;;;;;;11.23;4.55;;;;;;;;;;6184005;23;20172;-89
2021/06/09 18:12:20;;;;;;;9.98;4.53;;;;;;;;;;6186229;22;20217;-89
2021/06/09 18:15:26;;;;;;;8.05;4.63;;;;;;;;;;6183768;23;20172;-90
2021/06/09 18:18:33;;;;;;;13.48;8.07;;;;;;;;;;6202380;23;20188;-89
2021/06/09 18:21:37;;;;;;;9.05;5.20;;;;;;;;;;6200215;22;20677;-91
2021/06/09 18:24:42;;;;;;;11.80;6.15;;;;;;;;;;6200334;23;20175;-90
2021/06/09 18:27:47;;;;;;;10.43;5.05;;;;;;;;;;6182325;23;20656;-90
2021/06/09 18:30:51;;;;;;;11.10;5.60;;;;;;;;;;6182878;23;20176;-89
2021/06/09 18:33:58;;;;;;;10.25;6.03;;;;;;;;;;6199444;23;20187;-91
2021/06/09 18:37:04;;;;;;;10.80;5.28;;;;;;;;;;6192717;23;20187;-90
2021/06/09 18:40:10;;;;;;;10.88;6.32;;;;;;;;;;6201202;23;20171;-90
2021/06/09 18:43:16;;;;;;;9.88;5.88;;;;;;;;;;6199139;23;20176;-92
2021/06/09 18:46:21;;;;;;;14.73;6.32;;;;;;;;;;6217329;23;20203;-90
2021/06/09 18:49:28;;;;;;;22.65;16.17;;;;;;;;;;6198700;23;20175;-90
2021/06/09 18:52:33;;;;;;;20.55;10.13;;;;;;;;;;6200192;23;20208;-89
2021/06/09 18:55:38;;;;;;;12.75;7.22;;;;;;;;;;6201159;23;20311;-89
2021/06/09 18:58:43;;;;;;;61.45;30.80;;;;;;;;;;6200390;23;20172;-90
2021/06/09 19:01:49;;;;;;;20.13;10.80;;;;;;;;;;6202589;23;20215;-92
2021/06/09 19:04:56;;;;;;;10.45;5.70;;;;;;;;;;6202043;23;20469;-90